createdAt,value
2022-08-22T00:00:30.038Z,17.97
2022-08-22T00:02:46.509Z,18.80
2022-08-22T00:03:12.111Z,18.18
2022-08-22T00:03:32.690Z,18.13
2022-08-22T00:06:34.692Z,18.02
2022-08-22T00:09:26.622Z,18.04
2022-08-22T00:12:18.371Z,17.96
2022-08-22T00:15:00.854Z,17.89
2022-08-22T00:17:40.377Z,17.86
2022-08-22T00:20:28.883Z,17.77
2022-08-22T00:23:02.403Z,17.65
2022-08-22T00:25:42.222Z,17.57
2022-08-22T00:28:21.869Z,17.67
2022-08-22T00:31:18.457Z,17.52
2022-08-22T00:34:10.168Z,17.50
2022-08-22T00:36:49.451Z,17.42
2022-08-22T00:39:31.761Z,17.39
2022-08-22T00:42:29.437Z,17.40
2022-08-22T00:44:58.169Z,17.32
2022-08-22T00:47:58.011Z,17.47
2022-08-22T00:50:46.095Z,17.39
2022-08-22T00:53:40.386Z,17.42
2022-08-22T00:56:25.866Z,17.30
2022-08-22T00:59:08.529Z,17.23
2022-08-22T01:01:40.390Z,17.22
2022-08-22T01:04:45.569Z,17.22
2022-08-22T01:07:21.942Z,17.16
2022-08-22T01:10:21.265Z,17.13
2022-08-22T01:13:10.611Z,17.08
2022-08-22T01:15:43.181Z,16.95
2022-08-22T01:18:25.722Z,16.96
2022-08-22T01:21:14.324Z,16.94
2022-08-22T01:24:13.785Z,16.93
2022-08-22T01:27:12.358Z,17.02
2022-08-22T01:30:05.975Z,16.97
2022-08-22T01:32:59.147Z,16.88
2022-08-22T01:35:38.914Z,16.81
2022-08-22T01:38:29.265Z,16.83
2022-08-22T01:41:22.939Z,16.80
2022-08-22T01:44:05.206Z,16.78
2022-08-22T01:46:53.587Z,16.81
2022-08-22T01:49:27.141Z,16.80
2022-08-22T01:52:15.680Z,16.81
2022-08-22T01:54:54.756Z,16.80
2022-08-22T01:57:26.958Z,16.84
2022-08-22T02:00:00.578Z,16.84
2022-08-22T02:02:55.209Z,16.86
2022-08-22T02:05:31.798Z,16.75
2022-08-22T02:08:09.597Z,16.80
2022-08-22T02:11:01.332Z,16.70
2022-08-22T02:13:37.461Z,16.64
2022-08-22T02:16:17.850Z,16.66
2022-08-22T02:18:57.647Z,16.58
2022-08-22T02:21:31.106Z,16.62
2022-08-22T02:24:06.657Z,16.51
2022-08-22T02:27:01.377Z,16.58
2022-08-22T02:29:53.150Z,16.62
2022-08-22T02:32:44.861Z,16.63
2022-08-22T02:35:21.144Z,16.58
2022-08-22T02:38:28.373Z,16.58
2022-08-22T02:41:17.648Z,16.56
2022-08-22T02:43:57.577Z,16.51
2022-08-22T02:46:34.155Z,16.45
2022-08-22T02:49:28.712Z,16.42
2022-08-22T02:52:24.220Z,16.43
2022-08-22T02:55:06.766Z,16.42
2022-08-22T02:57:47.583Z,16.36
2022-08-22T03:00:32.476Z,16.31
2022-08-22T03:03:22.576Z,16.32
2022-08-22T03:06:32.818Z,16.28
2022-08-22T03:09:21.329Z,16.29
2022-08-22T03:12:01.757Z,16.28
2022-08-22T03:14:35.651Z,16.34
2022-08-22T03:17:11.726Z,16.40
2022-08-22T03:19:51.033Z,16.50
2022-08-22T03:22:39.428Z,16.52
2022-08-22T03:25:21.476Z,16.59
2022-08-22T03:28:01.915Z,16.62
2022-08-22T03:30:38.886Z,16.70
2022-08-22T03:33:27.548Z,16.72
2022-08-22T03:36:19.478Z,16.87
2022-08-22T03:39:16.575Z,16.73
2022-08-22T03:42:04.545Z,16.76
2022-08-22T03:44:59.587Z,16.72
2022-08-22T03:47:35.932Z,16.63
2022-08-22T03:50:21.103Z,16.56
2022-08-22T03:53:18.701Z,16.54
2022-08-22T03:56:15.268Z,16.56
2022-08-22T03:58:44.154Z,16.49
2022-08-22T04:01:21.823Z,16.50
2022-08-22T04:04:13.375Z,16.48
2022-08-22T04:06:53.735Z,16.48
2022-08-22T04:09:37.013Z,16.62
2022-08-22T04:12:16.541Z,16.52
2022-08-22T04:15:01.349Z,16.44
2022-08-22T04:17:37.298Z,16.47
2022-08-22T04:20:34.700Z,16.49
2022-08-22T04:23:16.998Z,16.53
2022-08-22T04:26:12.078Z,16.46
2022-08-22T04:28:45.657Z,16.57
2022-08-22T04:31:25.308Z,16.59
2022-08-22T04:33:58.922Z,16.64
2022-08-22T04:36:32.486Z,16.73
2022-08-22T04:39:21.131Z,16.75
2022-08-22T04:42:31.835Z,16.86
2022-08-22T04:44:55.272Z,16.92
2022-08-22T04:47:46.005Z,16.98
2022-08-22T04:50:21.247Z,17.06
2022-08-22T04:53:06.564Z,17.16
2022-08-22T04:55:58.144Z,17.33
2022-08-22T04:58:43.691Z,17.34
2022-08-22T05:01:17.595Z,17.40
2022-08-22T05:04:00.028Z,17.41
2022-08-22T05:06:35.195Z,17.52
2022-08-22T05:09:11.775Z,17.48
2022-08-22T05:11:43.372Z,17.59
2022-08-22T05:14:28.526Z,17.75
2022-08-22T05:17:00.277Z,17.80
2022-08-22T05:19:37.282Z,17.92
2022-08-22T05:22:12.454Z,17.86
2022-08-22T05:24:46.341Z,17.88
2022-08-22T05:27:22.543Z,18.02
2022-08-22T05:29:58.439Z,18.08
2022-08-22T05:32:31.968Z,18.10
2022-08-22T05:35:05.046Z,18.16
2022-08-22T05:37:41.252Z,18.36
2022-08-22T05:40:17.560Z,18.44
2022-08-22T05:42:48.932Z,18.58
2022-08-22T05:45:20.196Z,18.51
2022-08-22T05:47:53.735Z,18.72
2022-08-22T05:50:39.265Z,19.02
2022-08-22T05:53:24.958Z,19.32
2022-08-22T05:56:07.148Z,19.67
2022-08-22T05:58:49.758Z,20.26
2022-08-22T06:01:38.405Z,20.83
2022-08-22T06:04:37.584Z,21.66
2022-08-22T06:07:16.999Z,22.55
2022-08-22T06:09:50.658Z,23.36
2022-08-22T06:12:43.053Z,24.32
2022-08-22T06:15:20.790Z,25.44
2022-08-22T06:18:00.060Z,26.39
2022-08-22T06:20:36.643Z,27.04
2022-08-22T06:23:09.053Z,26.07
2022-08-22T06:25:42.625Z,26.48
2022-08-22T06:28:16.145Z,25.12
2022-08-22T06:30:48.148Z,25.44
2022-08-22T06:33:21.984Z,23.47
2022-08-22T06:36:13.599Z,23.12
2022-08-22T06:39:10.176Z,21.96
2022-08-22T06:42:03.137Z,22.28
2022-08-22T06:44:39.682Z,22.74
2022-08-22T06:47:15.885Z,22.85
2022-08-22T06:49:47.074Z,22.81
2022-08-22T06:52:23.826Z,23.12
2022-08-22T06:55:00.416Z,23.26
2022-08-22T06:57:36.857Z,23.22
2022-08-22T07:00:10.613Z,23.02
2022-08-22T07:02:49.795Z,23.13
2022-08-22T07:05:26.223Z,23.30
2022-08-22T07:07:58.103Z,23.15
2022-08-22T07:10:28.769Z,22.31
2022-08-22T07:13:00.523Z,23.02
2022-08-22T07:15:37.087Z,22.92
2022-08-22T07:18:19.467Z,22.83
2022-08-22T07:20:55.195Z,22.96
2022-08-22T07:23:39.902Z,22.48
2022-08-22T07:26:35.569Z,23.23
2022-08-22T07:29:18.337Z,22.01
2022-08-22T07:32:00.865Z,22.36
2022-08-22T07:34:38.021Z,22.36
2022-08-22T07:37:17.671Z,22.99
2022-08-22T07:39:54.197Z,22.72
2022-08-22T07:42:30.375Z,23.42
2022-08-22T07:45:09.891Z,23.12
2022-08-22T07:47:52.651Z,23.46
2022-08-22T07:50:26.156Z,22.84
2022-08-22T07:52:59.620Z,23.29
2022-08-22T07:55:30.217Z,23.14
2022-08-22T07:58:03.986Z,22.68
2022-08-22T08:00:38.310Z,22.96
2022-08-22T08:03:11.068Z,22.61
2022-08-22T08:05:45.262Z,22.59
2022-08-22T08:08:36.760Z,22.62
2022-08-22T08:11:10.797Z,22.25
2022-08-22T08:13:44.962Z,22.56
2022-08-22T08:16:22.831Z,23.29
2022-08-22T08:18:56.925Z,23.58
2022-08-22T08:21:33.332Z,23.18
2022-08-22T08:24:05.989Z,23.82
2022-08-22T08:26:44.182Z,22.77
2022-08-22T08:29:18.829Z,22.36
2022-08-22T08:31:51.521Z,22.14
2022-08-22T08:34:25.203Z,22.20
2022-08-22T08:37:07.727Z,22.07
2022-08-22T08:39:48.495Z,22.10
2022-08-22T08:42:24.785Z,22.58
2022-08-22T08:45:07.549Z,22.51
2022-08-22T08:47:46.870Z,22.46
2022-08-22T08:50:21.522Z,22.46
2022-08-22T08:53:24.205Z,22.40
2022-08-22T08:56:22.382Z,22.60
2022-08-22T08:58:57.624Z,22.50
2022-08-22T09:01:46.340Z,22.27
2022-08-22T09:04:25.854Z,22.57
2022-08-22T09:07:08.548Z,22.68
2022-08-22T09:10:00.047Z,23.20
2022-08-22T09:13:11.720Z,23.84
2022-08-22T09:15:37.555Z,23.01
2022-08-22T09:18:22.440Z,23.97
2022-08-22T09:21:04.658Z,23.47
2022-08-22T09:24:07.555Z,23.40
2022-08-22T09:26:48.682Z,22.93
2022-08-22T09:29:54.974Z,22.66
2022-08-22T09:32:33.917Z,22.70
2022-08-22T09:35:23.173Z,22.28
2022-08-22T09:38:12.863Z,22.38
2022-08-22T09:41:03.426Z,22.23
2022-08-22T09:44:05.053Z,22.43
2022-08-22T09:47:07.560Z,22.64
2022-08-22T09:49:44.795Z,22.92
2022-08-22T09:52:40.741Z,23.40
2022-08-22T09:55:16.912Z,23.78
2022-08-22T09:57:53.927Z,23.74
2022-08-22T10:00:27.513Z,23.81
2022-08-22T10:03:32.319Z,23.80
2022-08-22T10:06:09.129Z,23.64
2022-08-22T10:09:00.581Z,23.74
2022-08-22T10:11:46.018Z,23.72
2022-08-22T10:14:23.160Z,23.63
2022-08-22T10:17:21.766Z,23.16
2022-08-22T10:19:57.107Z,23.47
2022-08-22T10:22:53.293Z,23.20
2022-08-22T10:25:31.376Z,23.08
2022-08-22T10:28:06.826Z,23.04
2022-08-22T10:30:50.939Z,23.05
2022-08-22T10:33:29.695Z,23.66
2022-08-22T10:36:11.981Z,23.78
2022-08-22T10:38:47.515Z,24.41
2022-08-22T10:41:30.533Z,24.50
2022-08-22T10:44:07.031Z,24.82
2022-08-22T10:46:58.198Z,24.77
2022-08-22T10:49:40.779Z,24.17
2022-08-22T10:52:15.685Z,23.57
2022-08-22T10:55:09.889Z,23.98
2022-08-22T10:57:57.635Z,23.70
2022-08-22T11:00:37.183Z,23.78
2022-08-22T11:03:27.715Z,24.50
2022-08-22T11:06:04.535Z,24.46
2022-08-22T11:08:40.908Z,23.52
2022-08-22T11:11:35.696Z,24.49
2022-08-22T11:14:17.480Z,25.16
2022-08-22T11:17:29.937Z,25.46
2022-08-22T11:20:20.443Z,24.42
2022-08-22T11:23:12.491Z,24.58
2022-08-22T11:25:52.375Z,25.24
2022-08-22T11:28:33.406Z,25.35
2022-08-22T11:31:20.060Z,25.28
2022-08-22T11:34:00.991Z,24.08
2022-08-22T11:36:38.796Z,24.54
2022-08-22T11:39:18.384Z,24.22
2022-08-22T11:42:21.860Z,23.88
2022-08-22T11:45:02.368Z,24.25
2022-08-22T11:47:37.708Z,23.82
2022-08-22T11:50:22.939Z,24.15
2022-08-22T11:53:16.078Z,24.65
2022-08-22T11:56:19.856Z,24.99
2022-08-22T11:59:05.951Z,24.50
2022-08-22T12:01:40.664Z,24.68
2022-08-22T12:04:14.157Z,24.70
2022-08-22T12:06:49.821Z,24.86
2022-08-22T12:09:23.608Z,24.18
2022-08-22T12:12:21.613Z,24.38
2022-08-22T12:15:25.796Z,24.03
2022-08-22T12:18:23.748Z,24.14
2022-08-22T12:21:33.882Z,23.73
2022-08-22T12:24:21.096Z,24.72
2022-08-22T12:27:07.758Z,25.06
2022-08-22T12:29:53.695Z,23.84
2022-08-22T12:32:45.771Z,23.84
2022-08-22T12:35:31.295Z,24.63
2022-08-22T12:38:28.013Z,24.70
2022-08-22T12:41:13.331Z,24.11
2022-08-22T12:43:51.557Z,24.25
2022-08-22T12:46:37.841Z,23.92
2022-08-22T12:49:13.077Z,23.73
2022-08-22T12:51:46.847Z,24.17
2022-08-22T12:54:43.054Z,24.37
2022-08-22T12:57:24.243Z,24.22
2022-08-22T12:59:58.164Z,23.90
2022-08-22T13:02:31.927Z,24.80
2022-08-22T13:05:05.458Z,24.66
2022-08-22T13:07:38.914Z,24.29
2022-08-22T13:10:38.124Z,23.93
2022-08-22T13:13:12.759Z,23.77
2022-08-22T13:15:53.506Z,23.90
2022-08-22T13:18:31.132Z,24.10
2022-08-22T13:21:03.080Z,24.57
2022-08-22T13:23:41.920Z,25.12
2022-08-22T13:26:33.081Z,24.97
2022-08-22T13:29:24.019Z,24.86
2022-08-22T13:31:39.678Z,24.50
2022-08-22T13:34:13.121Z,24.00
2022-08-22T13:36:51.819Z,23.57
2022-08-22T13:39:22.001Z,24.05
2022-08-22T13:41:55.488Z,23.93
2022-08-22T13:44:44.112Z,24.00
2022-08-22T13:47:20.903Z,24.15
2022-08-22T13:49:56.070Z,23.59
2022-08-22T13:52:37.926Z,23.55
2022-08-22T13:55:29.926Z,23.62
2022-08-22T13:58:25.102Z,23.51
2022-08-22T14:01:16.249Z,23.40
2022-08-22T14:04:04.958Z,23.57
2022-08-22T14:06:53.576Z,23.61
2022-08-22T14:09:41.740Z,23.58
2022-08-22T14:12:18.380Z,23.54
2022-08-22T14:14:52.411Z,23.41
2022-08-22T14:17:25.990Z,23.52
2022-08-22T14:20:06.935Z,23.65
2022-08-22T14:22:41.700Z,23.61
2022-08-22T14:25:21.532Z,23.38
2022-08-22T14:27:59.625Z,23.38
2022-08-22T14:30:34.777Z,23.20
2022-08-22T14:33:08.393Z,23.51
2022-08-22T14:35:42.045Z,23.82
2022-08-22T14:38:21.626Z,23.42
2022-08-22T14:40:57.167Z,23.33
2022-08-22T14:43:35.095Z,23.54
2022-08-22T14:46:13.078Z,23.75
2022-08-22T14:48:46.838Z,23.92
2022-08-22T14:51:21.363Z,24.07
2022-08-22T14:53:52.622Z,23.95
2022-08-22T14:56:27.831Z,23.71
2022-08-22T14:59:04.177Z,23.92
2022-08-22T15:01:37.850Z,24.03
2022-08-22T15:04:18.896Z,23.80
2022-08-22T15:06:55.357Z,24.18
2022-08-22T15:09:43.513Z,24.44
2022-08-22T15:12:32.289Z,24.34
2022-08-22T15:15:05.847Z,23.64
2022-08-22T15:17:44.461Z,23.33
2022-08-22T15:20:27.613Z,23.07
2022-08-22T15:23:00.656Z,23.19
2022-08-22T15:25:41.131Z,23.61
2022-08-22T15:28:20.338Z,23.72
2022-08-22T15:30:54.188Z,24.08
2022-08-22T15:33:35.113Z,24.22
2022-08-22T15:36:16.380Z,23.48
2022-08-22T15:38:49.672Z,23.74
2022-08-22T15:41:36.212Z,23.38
2022-08-22T15:44:32.463Z,23.40
2022-08-22T15:47:31.494Z,23.48
2022-08-22T15:50:07.907Z,23.66
2022-08-22T15:53:04.905Z,23.55
2022-08-22T15:55:31.790Z,23.70
2022-08-22T15:58:14.077Z,23.86
2022-08-22T16:00:48.188Z,24.04
2022-08-22T16:03:28.006Z,23.84
2022-08-22T16:06:08.010Z,23.62
2022-08-22T16:08:47.770Z,23.42
2022-08-22T16:11:38.749Z,23.28
2022-08-22T16:14:36.822Z,23.20
2022-08-22T16:17:10.409Z,23.15
2022-08-22T16:19:40.876Z,22.83
2022-08-22T16:22:13.097Z,22.91
2022-08-22T16:25:02.976Z,22.82
2022-08-22T16:27:34.582Z,23.00
2022-08-22T16:30:11.320Z,22.87
2022-08-22T16:32:46.740Z,23.04
2022-08-22T16:35:37.072Z,22.76
2022-08-22T16:38:09.054Z,22.75
2022-08-22T16:40:42.701Z,22.72
2022-08-22T16:43:16.176Z,22.69
2022-08-22T16:45:48.595Z,22.57
2022-08-22T16:48:33.455Z,22.48
2022-08-22T16:51:07.042Z,22.32
2022-08-22T16:53:45.800Z,22.30
2022-08-22T16:56:29.605Z,22.22
2022-08-22T16:59:22.030Z,22.21
2022-08-22T17:02:04.736Z,22.16
2022-08-22T17:05:10.531Z,22.20
2022-08-22T17:08:02.032Z,22.08
2022-08-22T17:10:44.571Z,22.08
2022-08-22T17:13:46.804Z,22.04
2022-08-22T17:16:47.262Z,22.12
2022-08-22T17:19:42.551Z,21.94
2022-08-22T17:22:44.662Z,21.98
2022-08-22T17:25:21.311Z,21.96
2022-08-22T17:28:04.562Z,21.88
2022-08-22T17:30:50.067Z,21.88
2022-08-22T17:33:37.307Z,22.01
2022-08-22T17:36:27.148Z,21.97
2022-08-22T17:39:04.724Z,21.88
2022-08-22T17:41:47.261Z,21.88
2022-08-22T17:44:24.444Z,21.88
2022-08-22T17:47:09.824Z,21.74
2022-08-22T17:49:46.102Z,21.74
2022-08-22T17:52:28.490Z,21.77
2022-08-22T17:55:07.899Z,21.64
2022-08-22T17:57:42.870Z,21.69
2022-08-22T18:00:30.573Z,21.54
2022-08-22T18:03:24.601Z,21.60
2022-08-22T18:06:07.237Z,21.48
2022-08-22T18:11:28.367Z,21.43
2022-08-22T18:14:26.385Z,21.42
2022-08-22T18:16:59.363Z,21.18
2022-08-22T18:19:46.695Z,21.15
2022-08-22T18:22:24.390Z,21.15
2022-08-22T18:25:09.497Z,21.00
2022-08-22T18:27:48.566Z,20.96
2022-08-22T18:30:22.584Z,20.86
2022-08-22T18:33:11.213Z,20.88
2022-08-22T18:35:54.486Z,20.82
2022-08-22T18:38:36.833Z,20.77
2022-08-22T18:41:23.366Z,20.68
2022-08-22T18:43:56.362Z,20.65
2022-08-22T18:46:35.738Z,20.67
2022-08-22T18:49:16.113Z,20.59
2022-08-22T18:52:17.403Z,20.58
2022-08-22T18:55:06.093Z,20.53
2022-08-22T18:58:03.682Z,20.51
2022-08-22T19:01:00.045Z,20.50
2022-08-22T19:04:10.046Z,20.46
2022-08-22T19:07:09.960Z,20.44
2022-08-22T19:10:10.170Z,20.31
2022-08-22T19:13:03.045Z,20.31
2022-08-22T19:15:48.553Z,20.26
2022-08-22T19:18:44.595Z,20.30
2022-08-22T19:21:48.630Z,20.23
2022-08-22T19:24:27.899Z,20.17
2022-08-22T19:27:21.286Z,20.15
2022-08-22T19:29:55.276Z,20.14
2022-08-22T19:32:48.071Z,20.32
2022-08-22T19:35:28.528Z,20.23
2022-08-22T19:38:01.758Z,20.15
2022-08-22T19:40:50.542Z,20.17
2022-08-22T19:43:36.774Z,20.20
2022-08-22T19:46:10.959Z,20.21
2022-08-22T19:48:51.960Z,20.17
2022-08-22T19:51:28.374Z,20.15
2022-08-22T19:54:21.741Z,20.18
2022-08-22T19:57:07.147Z,20.21
2022-08-22T20:00:00.458Z,20.17
2022-08-22T20:02:58.126Z,20.22
2022-08-22T20:05:35.026Z,20.18
2022-08-22T20:08:31.136Z,20.11
2022-08-22T20:11:16.632Z,20.12
2022-08-22T20:13:47.362Z,20.21
2022-08-22T20:16:23.105Z,20.26
2022-08-22T20:19:09.607Z,20.05
2022-08-22T20:22:03.490Z,19.98
2022-08-22T20:25:01.676Z,20.05
2022-08-22T20:27:38.481Z,19.93
2022-08-22T20:30:12.049Z,19.92
2022-08-22T20:32:45.661Z,19.89
2022-08-22T20:35:22.031Z,19.88
2022-08-22T20:38:07.210Z,19.95
2022-08-22T20:40:56.228Z,19.89
2022-08-22T20:43:30.646Z,19.87
2022-08-22T20:46:21.971Z,19.90
2022-08-22T20:48:57.165Z,19.80
2022-08-22T20:51:31.628Z,19.83
2022-08-22T20:54:10.234Z,19.80
2022-08-22T20:56:48.737Z,19.78
2022-08-22T20:59:40.083Z,19.75
2022-08-22T21:02:16.348Z,19.81
2022-08-22T21:04:53.117Z,19.69
2022-08-22T21:07:29.366Z,19.62
2022-08-22T21:10:25.531Z,19.61
2022-08-22T21:13:15.723Z,19.51
2022-08-22T21:15:52.128Z,19.54
2022-08-22T21:18:34.488Z,19.55
2022-08-22T21:21:20.070Z,19.44
2022-08-22T21:23:59.918Z,19.46
2022-08-22T21:26:30.225Z,19.43
2022-08-22T21:29:15.531Z,19.37
2022-08-22T21:31:49.341Z,19.49
2022-08-22T21:34:25.725Z,19.38
2022-08-22T21:36:59.461Z,19.44
2022-08-22T21:39:32.990Z,19.47
2022-08-22T21:42:06.554Z,19.36
2022-08-22T21:44:39.957Z,19.51
2022-08-22T21:47:31.727Z,19.34
2022-08-22T21:50:08.194Z,19.43
2022-08-22T21:52:41.667Z,19.42
2022-08-22T21:55:24.224Z,19.37
2022-08-22T21:58:35.735Z,19.38
2022-08-22T22:00:58.564Z,19.37
2022-08-22T22:03:31.856Z,19.44
2022-08-22T22:06:05.334Z,19.36
2022-08-22T22:08:35.785Z,19.39
2022-08-22T22:11:09.515Z,19.42
2022-08-22T22:13:40.179Z,19.39
2022-08-22T22:16:13.439Z,19.43
2022-08-22T22:18:44.009Z,19.42
2022-08-22T22:21:14.513Z,19.32
2022-08-22T22:23:45.050Z,19.37
2022-08-22T22:26:18.446Z,19.34
2022-08-22T22:28:50.322Z,19.48
2022-08-22T22:31:20.948Z,19.40
2022-08-22T22:33:51.515Z,19.43
2022-08-22T22:36:25.031Z,19.48
2022-08-22T22:38:59.191Z,19.49
2022-08-22T22:41:30.934Z,19.45
2022-08-22T22:44:02.175Z,19.38
2022-08-22T22:46:32.730Z,19.30
2022-08-22T22:49:09.215Z,19.35
2022-08-22T22:51:41.482Z,19.41
2022-08-22T22:54:12.311Z,19.29
2022-08-22T22:56:48.039Z,19.29
2022-08-22T22:59:16.698Z,19.24
2022-08-22T23:02:12.123Z,19.09
2022-08-22T23:04:45.221Z,19.23
2022-08-22T23:07:18.411Z,19.40
2022-08-22T23:09:48.829Z,19.25
2022-08-22T23:12:23.482Z,19.22
2022-08-22T23:14:54.336Z,18.94
2022-08-22T23:17:24.943Z,18.92
2022-08-22T23:19:56.981Z,18.93
2022-08-22T23:22:27.697Z,19.07
2022-08-22T23:24:58.151Z,18.90
2022-08-22T23:27:28.700Z,19.00
2022-08-22T23:30:02.176Z,19.36
2022-08-22T23:32:33.931Z,19.30
2022-08-22T23:35:11.259Z,19.16
2022-08-22T23:37:38.687Z,19.08
2022-08-22T23:40:10.762Z,19.36
2022-08-22T23:42:43.052Z,18.99
2022-08-22T23:45:13.846Z,19.09
2022-08-22T23:47:46.002Z,19.13
2022-08-22T23:50:16.694Z,18.94
2022-08-22T23:52:48.730Z,19.04
2022-08-22T23:55:19.468Z,19.34
2022-08-22T23:57:51.206Z,19.10
